Hlavní strana
METAR-TAF:

METAR-TAF

Letiště :

Luleå, Švédsko

zeměpisná šířka: 65-33N, zeměpisná délka: 022-08E, výška: 17 m

Aktuální stav počasí

Zpráva byla vytvořena před 27 minutami, v 10:20 UTC
Jižní vítr 10 kt
Teplota -2°C
Vlhkost vzduchu 100%
Tlak 1003 hPa
Viditelnost: 2500 m
sníh

METAR: ESPA 181020Z 18010KT 2500 SN VV010 M02/M02 Q1003

Čas: 11:47 (10:47 UTC)

Předpověď počasí

Zpráva byla vytvořena před 27 minutami, v 10:20 UTC
Předpověď platná od 18 v 10 UTC do 18 v 18 UTC
Jižní vítr 14 kt
Viditelnost: 2500 m
ve výšce 1100 ft
sníh
Dočasný
od 18 v 10 UTC do 18 v 13 UTC
Viditelnost: 1600 m
ve výšce 400 ft
sníh
Dočasný
od 18 v 10 UTC do 18 v 13 UTC
Viditelnost: 7000 m
ve výšce 1700 ft
slabé sněžení
Změna
od 18 v 13 UTC do 18 v 15 UTC
Viditelnost 10 km a více
Oblačno až skoro zataženo ve výšce 2500 ft

TAF: ESPA 181020Z 1810/1818 18014KT 2500 SN VV011 TEMPO 1810/1813 1600 SN VV004 TEMPO 1810/1813 7000 -SN VV017 BECMG 1813/1815 9999 NSW BKN025 RMK MIL

Stav a předpovědi počasí z více než 4 000 letišť (zprávy METAR a TAF).

Červené a žluté tečky na mapě představují dostupné meteorologické stanice.

Když kurzor umístíte na tečku, zobrazí se název stanice.

Pak kliknutím zobrazíte stav a předpověď počasí.

Chcete-li změnit mapu, kliknutím na zelené tlačítko se znaménkem +mapu přiblížíte, kliknutím na zelené tlačítko se znaménkem – mapu oddálíte a kliknutím na zelené šipky přejdete na sousední mapy.


METAR-TAF: